Time;durP1;ratioP1;P1;durP2;ratioP2;P2;SDS_P1;SDS_P2;PMS_P1;PMS_P2;Temp;Humidity;BMP_temperature;BMP_pressure;BME280_temperature;BME280_humidity;BME280_pressure;Samples;Min_cycle;Max_cycle;Signal;HPM_P1;HPM_P2
2021/09/03 00:02:24;;;;;;;15.18;7.70;;;18.00;72.70;;;;;;4971965;28;20031;-71
2021/09/03 00:04:50;;;;;;;21.08;7.35;;;18.00;72.60;;;;;;4973599;28;20364;-71
2021/09/03 00:07:16;;;;;;;14.20;7.32;;;17.90;72.40;;;;;;4974145;28;20045;-71
2021/09/03 00:09:42;;;;;;;15.95;6.43;;;18.00;72.40;;;;;;4968746;28;20118;-71
2021/09/03 00:12:08;;;;;;;11.60;5.88;;;17.90;72.40;;;;;;4963779;28;20110;-71
2021/09/03 00:14:34;;;;;;;12.65;6.03;;;17.90;72.60;;;;;;4973485;28;20129;-71
2021/09/03 00:17:00;;;;;;;14.35;7.35;;;17.90;73.10;;;;;;4971689;28;20500;-71
2021/09/03 00:19:26;;;;;;;10.55;6.18;;;17.90;73.40;;;;;;4974032;28;20034;-71
2021/09/03 00:21:53;;;;;;;18.67;7.75;;;17.90;73.40;;;;;;4972044;28;20050;-71
2021/09/03 00:24:22;;;;;;;10.18;5.85;;;17.80;73.40;;;;;;4965884;28;20065;-71
2021/09/03 00:26:49;;;;;;;19.23;6.30;;;17.80;73.20;;;;;;4963650;28;20041;-71
2021/09/03 00:29:16;;;;;;;9.48;5.18;;;17.80;73.20;;;;;;4963201;28;20561;-71
2021/09/03 00:31:43;;;;;;;14.27;5.25;;;17.70;73.10;;;;;;4972561;28;20039;-71
2021/09/03 00:34:08;;;;;;;7.53;4.43;;;17.70;73.20;;;;;;4973005;28;20023;-71
2021/09/03 00:36:34;;;;;;;8.68;3.60;;;17.70;73.20;;;;;;4973066;28;20031;-71
2021/09/03 00:39:00;;;;;;;12.82;3.92;;;17.70;73.10;;;;;;4972282;28;20054;-71
2021/09/03 00:41:25;;;;;;;10.93;5.57;;;17.70;73.00;;;;;;4974117;28;20463;-71
2021/09/03 00:43:51;;;;;;;11.13;6.07;;;17.70;73.00;;;;;;4973367;28;20415;-71
2021/09/03 00:46:17;;;;;;;9.90;5.68;;;17.70;73.00;;;;;;4972245;28;20486;-71
2021/09/03 00:48:42;;;;;;;10.73;5.85;;;17.60;73.00;;;;;;4971757;28;20071;-71
2021/09/03 00:51:08;;;;;;;14.45;5.90;;;17.60;73.20;;;;;;4970658;28;20125;-71
2021/09/03 00:53:35;;;;;;;13.57;5.97;;;17.50;73.20;;;;;;4966097;28;20081;-71
2021/09/03 00:56:01;;;;;;;10.43;5.88;;;17.60;73.30;;;;;;4972669;28;20037;-71
2021/09/03 00:58:27;;;;;;;10.65;5.82;;;17.50;73.10;;;;;;4973007;28;20058;-71
2021/09/03 01:00:52;;;;;;;10.50;5.95;;;17.50;72.90;;;;;;4971717;28;20118;-71
2021/09/03 01:03:18;;;;;;;10.45;5.15;;;17.50;72.90;;;;;;4972325;28;20031;-71
2021/09/03 01:05:44;;;;;;;10.52;5.38;;;17.50;72.90;;;;;;4970706;28;20038;-71
2021/09/03 01:08:11;;;;;;;10.73;6.40;;;17.40;72.80;;;;;;4972139;28;20500;-71
2021/09/03 01:10:36;;;;;;;12.13;5.82;;;17.40;72.80;;;;;;4973027;28;20055;-71
2021/09/03 01:13:03;;;;;;;13.07;6.45;;;17.40;72.70;;;;;;4972202;28;20023;-71
2021/09/03 01:15:29;;;;;;;12.60;5.68;;;17.40;72.80;;;;;;4972538;28;20057;-71
2021/09/03 01:17:55;;;;;;;10.98;6.82;;;17.40;73.40;;;;;;4972301;28;20123;-71
2021/09/03 01:20:21;;;;;;;13.25;5.00;;;17.30;72.70;;;;;;4972162;28;20106;-71
2021/09/03 01:22:47;;;;;;;13.77;5.85;;;17.30;72.70;;;;;;4967659;28;20467;-71
2021/09/03 01:25:15;;;;;;;11.20;5.28;;;17.30;72.90;;;;;;4972850;28;20042;-71
2021/09/03 01:27:41;;;;;;;10.38;6.30;;;17.30;73.20;;;;;;4966974;28;20028;-71
2021/09/03 01:30:12;;;;;;;12.40;5.82;;;17.20;73.20;;;;;;4965540;28;20042;-71
2021/09/03 01:32:39;;;;;;;8.98;5.53;;;17.20;73.70;;;;;;4970652;28;20031;-71
2021/09/03 01:35:05;;;;;;;9.35;4.97;;;17.20;73.80;;;;;;4970225;28;20038;-71
2021/09/03 01:37:31;;;;;;;10.65;4.95;;;17.10;73.80;;;;;;4970184;28;20399;-71
2021/09/03 01:39:57;;;;;;;8.32;4.03;;;17.10;73.90;;;;;;4972081;28;20023;-71
2021/09/03 01:42:22;;;;;;;9.70;4.30;;;17.10;73.90;;;;;;4972320;28;20027;-71
2021/09/03 01:44:48;;;;;;;7.35;3.53;;;17.10;73.80;;;;;;4972826;28;20027;-71
2021/09/03 01:47:14;;;;;;;6.97;4.10;;;17.00;73.50;;;;;;4972968;28;20038;-71
2021/09/03 01:49:39;;;;;;;9.32;3.53;;;17.00;73.40;;;;;;4969944;28;20390;-71
2021/09/03 01:52:05;;;;;;;7.22;2.88;;;17.00;73.40;;;;;;4972719;28;20197;-71
2021/09/03 01:54:32;;;;;;;8.30;3.90;;;16.90;73.20;;;;;;4972075;28;20039;-71
2021/09/03 01:56:58;;;;;;;6.20;3.40;;;16.90;73.20;;;;;;4971370;28;20053;-71
2021/09/03 01:59:23;;;;;;;12.48;5.47;;;16.90;73.20;;;;;;4960972;28;20039;-71
2021/09/03 02:01:49;;;;;;;8.32;4.20;;;16.90;73.30;;;;;;4970855;28;20046;-71
2021/09/03 02:04:14;;;;;;;11.73;5.85;;;16.90;73.30;;;;;;4971056;28;20425;-71
2021/09/03 02:06:40;;;;;;;11.75;4.97;;;16.90;73.40;;;;;;4971638;28;20030;-71
2021/09/03 02:09:06;;;;;;;9.43;4.93;;;16.80;73.40;;;;;;4968058;28;20031;-71
2021/09/03 02:11:31;;;;;;;11.38;4.53;;;16.80;73.40;;;;;;4971396;28;20536;-71
2021/09/03 02:13:57;;;;;;;10.90;5.82;;;16.80;73.50;;;;;;4967302;28;20043;-71
2021/09/03 02:16:23;;;;;;;10.80;4.70;;;16.80;73.40;;;;;;4971704;28;20177;-71
2021/09/03 02:18:49;;;;;;;7.68;3.97;;;16.80;73.60;;;;;;4971479;28;20023;-71
2021/09/03 02:21:15;;;;;;;8.52;4.88;;;16.70;73.40;;;;;;4970539;28;20133;-71
2021/09/03 02:23:40;;;;;;;8.82;4.35;;;16.70;73.40;;;;;;4971456;28;20027;-71
2021/09/03 02:26:06;;;;;;;5.00;2.78;;;16.70;73.50;;;;;;4975680;28;20442;-71
2021/09/03 02:28:32;;;;;;;3.42;2.10;;;16.70;73.40;;;;;;4975179;28;20031;-71
2021/09/03 02:30:57;;;;;;;9.77;3.33;;;16.60;73.40;;;;;;4974875;28;20088;-71
2021/09/03 02:33:23;;;;;;;4.75;2.70;;;16.60;73.60;;;;;;4965703;28;20027;-72
2021/09/03 02:35:48;;;;;;;3.55;2.25;;;16.60;73.80;;;;;;4974358;28;20430;-71
2021/09/03 02:38:14;;;;;;;4.53;2.20;;;16.60;73.80;;;;;;4974445;28;20031;-71
2021/09/03 02:40:40;;;;;;;6.75;2.45;;;16.60;73.80;;;;;;4974763;28;20030;-71
2021/09/03 02:43:05;;;;;;;5.00;2.35;;;16.50;74.00;;;;;;4975945;28;20035;-71
2021/09/03 02:45:31;;;;;;;4.60;2.58;;;16.50;74.20;;;;;;4973490;28;20035;-71
2021/09/03 02:47:57;;;;;;;6.53;2.20;;;16.50;74.40;;;;;;4964128;28;20035;-71
2021/09/03 02:50:23;;;;;;;6.60;3.00;;;16.50;74.50;;;;;;4974889;28;20121;-71
2021/09/03 02:52:49;;;;;;;3.47;2.05;;;16.40;74.40;;;;;;4973432;28;20109;-71
2021/09/03 02:55:15;;;;;;;6.03;2.78;;;16.40;74.40;;;;;;4976160;28;20042;-71
2021/09/03 02:57:41;;;;;;;8.45;3.45;;;16.40;74.40;;;;;;4974211;28;20023;-72
2021/09/03 03:00:08;;;;;;;7.13;3.25;;;16.40;74.60;;;;;;4966554;28;20057;-71
2021/09/03 03:02:34;;;;;;;7.00;3.17;;;16.40;74.60;;;;;;4970218;28;20027;-71
2021/09/03 03:05:00;;;;;;;9.15;4.30;;;16.30;74.60;;;;;;4974764;28;20030;-71
2021/09/03 03:07:26;;;;;;;9.27;4.03;;;16.40;75.50;;;;;;4974529;28;20042;-71
2021/09/03 03:09:51;;;;;;;9.18;4.97;;;16.30;75.10;;;;;;4973509;28;20043;-71
2021/09/03 03:12:19;;;;;;;5.95;3.47;;;16.30;75.20;;;;;;4975558;28;20019;-71
2021/09/03 03:14:46;;;;;;;7.85;3.17;;;16.30;75.30;;;;;;4961951;28;20498;-71
2021/09/03 03:17:12;;;;;;;6.38;2.70;;;16.30;75.30;;;;;;4975316;28;20414;-71
2021/09/03 03:19:38;;;;;;;3.92;2.72;;;16.30;75.30;;;;;;4962649;28;20035;-71
2021/09/03 03:22:04;;;;;;;4.13;2.80;;;16.20;75.20;;;;;;4974491;28;20037;-71
2021/09/03 03:24:30;;;;;;;8.82;3.40;;;16.20;75.10;;;;;;4974025;28;20125;-71
2021/09/03 03:26:56;;;;;;;9.43;4.43;;;16.20;75.10;;;;;;4974432;28;20030;-71
2021/09/03 03:29:22;;;;;;;10.52;5.30;;;16.10;75.40;;;;;;4961509;28;20156;-71
2021/09/03 03:31:48;;;;;;;9.50;5.07;;;16.10;75.60;;;;;;4974384;28;20054;-71
2021/09/03 03:34:13;;;;;;;8.10;4.40;;;16.10;75.90;;;;;;4973154;28;20027;-71
2021/09/03 03:36:39;;;;;;;13.45;4.50;;;16.10;75.90;;;;;;4974241;28;20038;-71
2021/09/03 03:39:05;;;;;;;8.40;4.50;;;16.10;75.90;;;;;;4973303;28;20027;-71
2021/09/03 03:41:31;;;;;;;9.57;4.90;;;16.10;76.00;;;;;;4974316;28;20026;-71
2021/09/03 03:43:57;;;;;;;8.80;4.45;;;16.10;76.10;;;;;;4973277;28;20363;-71
2021/09/03 03:46:23;;;;;;;6.93;3.90;;;16.10;76.20;;;;;;4974563;28;20039;-71
2021/09/03 03:48:48;;;;;;;10.50;5.40;;;16.00;76.20;;;;;;4973769;28;20038;-71
2021/09/03 03:51:14;;;;;;;10.35;4.50;;;16.00;76.30;;;;;;4973146;28;20066;-71
2021/09/03 03:53:40;;;;;;;6.97;4.13;;;16.00;76.30;;;;;;4974384;28;20510;-71
2021/09/03 03:56:05;;;;;;;5.35;3.15;;;16.00;76.40;;;;;;4963196;28;20059;-72
2021/09/03 03:58:31;;;;;;;5.00;2.80;;;16.00;76.40;;;;;;4972538;28;20040;-71
2021/09/03 04:00:57;;;;;;;5.00;3.15;;;16.00;76.40;;;;;;4973171;28;20058;-71
2021/09/03 04:03:22;;;;;;;4.95;3.05;;;15.90;76.40;;;;;;4973323;28;20027;-71
2021/09/03 04:05:48;;;;;;;4.30;2.80;;;15.90;76.20;;;;;;4965531;28;20446;-71
2021/09/03 04:08:14;;;;;;;5.78;3.00;;;15.90;76.00;;;;;;4973854;28;20113;-71
2021/09/03 04:10:39;;;;;;;6.45;3.30;;;15.90;75.90;;;;;;4973427;28;20050;-71
2021/09/03 04:13:05;;;;;;;4.93;2.60;;;15.90;75.90;;;;;;4968397;28;20030;-71
2021/09/03 04:15:30;;;;;;;7.97;3.78;;;15.90;75.90;;;;;;4972796;28;20059;-71
2021/09/03 04:17:56;;;;;;;7.35;2.88;;;15.80;76.00;;;;;;4972902;28;20030;-71
2021/09/03 04:20:22;;;;;;;7.13;2.72;;;15.90;76.10;;;;;;4965444;28;20026;-71
2021/09/03 04:22:48;;;;;;;7.65;2.75;;;15.90;76.10;;;;;;4966131;28;20114;-71
2021/09/03 04:25:13;;;;;;;6.45;3.08;;;15.80;76.10;;;;;;4972113;28;20498;-71
2021/09/03 04:27:41;;;;;;;9.27;2.65;;;15.80;76.20;;;;;;4966995;28;20032;-71
2021/09/03 04:30:08;;;;;;;8.85;4.93;;;15.80;76.00;;;;;;4970472;28;20402;-71
2021/09/03 04:32:34;;;;;;;4.80;2.97;;;15.80;76.30;;;;;;4973725;28;20034;-71
2021/09/03 04:34:59;;;;;;;5.50;3.50;;;15.80;76.40;;;;;;4972299;28;20042;-71
2021/09/03 04:37:25;;;;;;;4.43;2.83;;;15.70;76.40;;;;;;4971607;28;20027;-71
2021/09/03 04:39:51;;;;;;;5.85;2.45;;;15.80;76.60;;;;;;4972081;28;20086;-71
2021/09/03 04:42:16;;;;;;;6.57;3.10;;;15.70;76.70;;;;;;4972852;28;20030;-71
2021/09/03 04:44:42;;;;;;;6.63;3.50;;;15.80;77.10;;;;;;4971237;28;20433;-71
2021/09/03 04:47:07;;;;;;;8.68;5.03;;;15.70;77.30;;;;;;4972668;28;20537;-71
2021/09/03 04:49:33;;;;;;;11.32;4.90;;;15.70;77.80;;;;;;4972825;28;20114;-71
2021/09/03 04:51:59;;;;;;;11.27;5.07;;;15.70;78.40;;;;;;4972313;28;20041;-71
2021/09/03 04:54:24;;;;;;;13.43;5.57;;;15.70;78.90;;;;;;4972727;28;20033;-71
2021/09/03 04:56:50;;;;;;;11.82;5.57;;;15.70;79.00;;;;;;4972897;28;20065;-71
2021/09/03 04:59:15;;;;;;;15.32;5.13;;;15.70;79.00;;;;;;4971948;28;20062;-71
2021/09/03 05:01:41;;;;;;;23.48;5.65;;;15.70;79.20;;;;;;4973327;28;20037;-72
2021/09/03 05:04:07;;;;;;;48.40;6.35;;;15.70;80.00;;;;;;4967659;28;20398;-72
2021/09/03 05:06:32;;;;;;;17.73;4.93;;;15.70;79.70;;;;;;4972147;28;20088;-71
2021/09/03 05:08:58;;;;;;;13.90;5.97;;;15.70;79.90;;;;;;4970698;28;20058;-71
2021/09/03 05:11:24;;;;;;;17.25;6.05;;;15.70;80.40;;;;;;4970554;28;20043;-71
2021/09/03 05:13:49;;;;;;;14.25;5.68;;;15.70;80.70;;;;;;4971933;28;20077;-71
2021/09/03 05:16:15;;;;;;;15.65;6.35;;;15.80;80.50;;;;;;4971286;28;20074;-71
2021/09/03 05:18:41;;;;;;;32.30;6.95;;;15.80;80.90;;;;;;4972437;28;20050;-71
2021/09/03 05:21:07;;;;;;;42.42;6.35;;;15.70;81.00;;;;;;4971299;28;20046;-71
2021/09/03 05:23:33;;;;;;;14.30;5.90;;;15.80;81.30;;;;;;4972605;28;20120;-71
2021/09/03 05:25:59;;;;;;;19.45;5.45;;;15.80;81.30;;;;;;4971745;28;20025;-71
2021/09/03 05:28:29;;;;;;;18.92;5.85;;;15.80;81.20;;;;;;4971391;28;20121;-70
2021/09/03 05:30:55;;;;;;;14.82;6.55;;;15.80;81.70;;;;;;4971422;28;20041;-70
2021/09/03 05:33:21;;;;;;;13.93;6.20;;;15.80;82.00;;;;;;4971780;28;20466;-70
2021/09/03 05:35:47;;;;;;;15.60;6.32;;;15.80;82.10;;;;;;4972562;28;20018;-70
2021/09/03 05:38:13;;;;;;;19.77;6.65;;;15.90;82.20;;;;;;4971955;28;20023;-71
2021/09/03 05:40:39;;;;;;;17.45;7.05;;;15.90;82.60;;;;;;4970813;28;20878;-73
2021/09/03 05:43:05;;;;;;;11.88;6.03;;;15.90;83.10;;;;;;4972233;28;20038;-72
2021/09/03 05:45:31;;;;;;;12.70;6.28;;;16.00;83.20;;;;;;4970527;28;20093;-71
2021/09/03 05:48:00;;;;;;;18.85;7.75;;;16.00;83.30;;;;;;4970663;28;21380;-72
2021/09/03 05:50:26;;;;;;;16.88;6.82;;;16.00;83.60;;;;;;4970138;28;20051;-71
2021/09/03 05:52:51;;;;;;;12.77;6.57;;;16.00;83.70;;;;;;4971080;28;20023;-72
2021/09/03 05:55:17;;;;;;;15.63;7.30;;;16.10;83.70;;;;;;4971232;28;20069;-72
2021/09/03 05:57:43;;;;;;;17.92;7.30;;;16.10;83.50;;;;;;4970450;28;20085;-72
2021/09/03 06:00:09;;;;;;;14.63;6.68;;;16.10;83.50;;;;;;4971579;28;20089;-71
2021/09/03 06:02:35;;;;;;;18.55;7.47;;;16.10;83.50;;;;;;4973091;28;20024;-71
2021/09/03 06:05:00;;;;;;;18.70;6.05;;;16.20;83.50;;;;;;4974793;28;20425;-71
2021/09/03 06:07:26;;;;;;;15.82;6.60;;;16.20;83.30;;;;;;4974763;28;20046;-71
2021/09/03 06:09:52;;;;;;;12.52;7.43;;;16.20;83.20;;;;;;4973244;28;20081;-71
2021/09/03 06:12:17;;;;;;;14.07;7.00;;;16.20;83.50;;;;;;4972973;28;20045;-71
2021/09/03 06:14:43;;;;;;;16.25;7.70;;;16.20;83.70;;;;;;4972707;28;20050;-71
2021/09/03 06:17:08;;;;;;;13.80;6.80;;;16.30;84.10;;;;;;4972709;28;20034;-72
2021/09/03 06:19:34;;;;;;;16.35;7.82;;;16.30;83.50;;;;;;4973127;28;20109;-72
2021/09/03 06:22:01;;;;;;;18.98;8.43;;;16.30;83.80;;;;;;4974431;28;20538;-71
2021/09/03 06:24:28;;;;;;;14.90;7.38;;;16.30;84.40;;;;;;4970664;28;20406;-71
2021/09/03 06:27:05;;;;;;;16.05;7.10;;;16.40;84.30;;;;;;4974644;28;20035;-71
2021/09/03 06:29:45;;;;;;;17.10;6.85;;;16.40;83.90;;;;;;4973303;28;20042;-73
2021/09/03 06:32:12;;;;;;;18.40;7.30;;;16.30;84.20;;;;;;4972444;28;20037;-72
2021/09/03 06:34:43;;;;;;;17.83;8.15;;;16.40;84.60;;;;;;4971684;28;20027;-70
2021/09/03 06:37:09;;;;;;;20.65;7.68;;;16.40;85.30;;;;;;4973307;28;20054;-71
2021/09/03 06:39:36;;;;;;;15.57;7.85;;;16.50;85.60;;;;;;4973896;28;20066;-71
2021/09/03 06:42:03;;;;;;;18.00;7.70;;;16.50;86.10;;;;;;4972175;28;20081;-71
2021/09/03 06:44:29;;;;;;;18.02;8.00;;;16.50;86.40;;;;;;4973051;28;20073;-71
2021/09/03 06:46:55;;;;;;;20.23;8.55;;;16.60;86.60;;;;;;4975508;28;20034;-71
2021/09/03 06:49:21;;;;;;;17.85;8.02;;;16.60;86.90;;;;;;4975121;28;20038;-73
2021/09/03 06:51:46;;;;;;;18.90;8.35;;;16.70;87.20;;;;;;4974065;28;20034;-71
2021/09/03 06:54:13;;;;;;;19.45;8.48;;;16.70;87.20;;;;;;4974638;28;20019;-71
2021/09/03 06:56:38;;;;;;;21.70;8.60;;;16.70;86.70;;;;;;4974476;28;20042;-71
2021/09/03 06:59:04;;;;;;;14.88;8.50;;;16.70;87.10;;;;;;4968664;28;20019;-71
2021/09/03 07:01:30;;;;;;;22.52;9.55;;;16.80;87.40;;;;;;4974149;28;20081;-71
2021/09/03 07:03:55;;;;;;;20.20;9.32;;;16.70;88.00;;;;;;4973877;28;20042;-71
2021/09/03 07:06:21;;;;;;;20.25;9.18;;;16.80;87.80;;;;;;4973607;28;20030;-71
2021/09/03 07:08:47;;;;;;;21.33;9.75;;;16.80;88.30;;;;;;4974044;28;20034;-71
2021/09/03 07:11:12;;;;;;;43.92;10.52;;;16.90;88.80;;;;;;4973005;28;20487;-71
2021/09/03 07:13:38;;;;;;;31.73;10.75;;;16.90;89.40;;;;;;4974691;28;20089;-72
2021/09/03 07:16:04;;;;;;;23.73;10.63;;;16.90;89.80;;;;;;4972538;28;20121;-71
2021/09/03 07:18:30;;;;;;;28.88;11.27;;;17.00;90.00;;;;;;4975742;28;20039;-71
2021/09/03 07:20:56;;;;;;;23.67;10.02;;;17.10;90.00;;;;;;4972648;28;20049;-71
2021/09/03 07:23:22;;;;;;;23.15;10.27;;;17.10;90.10;;;;;;4974577;28;20105;-71
2021/09/03 07:25:48;;;;;;;23.88;10.30;;;17.10;90.20;;;;;;4974532;28;20509;-71
2021/09/03 07:28:14;;;;;;;19.70;9.35;;;17.10;90.30;;;;;;4972734;28;20368;-72
2021/09/03 07:30:40;;;;;;;28.15;10.90;;;17.20;90.30;;;;;;4974149;28;20367;-71
2021/09/03 07:33:06;;;;;;;30.02;10.00;;;17.20;90.40;;;;;;4972797;28;20825;-71
2021/09/03 07:35:31;;;;;;;23.88;10.15;;;17.30;90.40;;;;;;4974913;28;20125;-72
2021/09/03 07:37:57;;;;;;;29.15;11.85;;;17.20;90.30;;;;;;4974477;28;20034;-71
2021/09/03 07:40:23;;;;;;;27.52;11.02;;;17.30;90.40;;;;;;4971486;28;20112;-71
2021/09/03 07:42:49;;;;;;;26.42;11.10;;;17.30;90.50;;;;;;4965072;28;20035;-71
2021/09/03 07:45:15;;;;;;;34.63;11.45;;;17.40;90.50;;;;;;4973237;28;20043;-71
2021/09/03 07:47:41;;;;;;;35.65;12.30;;;17.40;90.70;;;;;;4972010;28;20037;-71
2021/09/03 07:50:07;;;;;;;27.58;10.70;;;17.40;90.70;;;;;;4974773;28;20050;-71
2021/09/03 07:52:33;;;;;;;21.77;11.18;;;17.40;90.70;;;;;;4972557;28;20039;-71
2021/09/03 07:54:58;;;;;;;24.75;10.85;;;17.50;90.90;;;;;;4973751;28;20019;-72
2021/09/03 07:57:24;;;;;;;22.20;9.68;;;17.50;90.90;;;;;;4973130;28;20042;-71
2021/09/03 07:59:49;;;;;;;22.17;8.20;;;17.50;90.70;;;;;;4961507;28;20078;-71
2021/09/03 08:02:15;;;;;;;17.33;7.57;;;17.50;90.50;;;;;;4973540;28;20121;-71
2021/09/03 08:04:41;;;;;;;17.42;7.22;;;17.60;90.20;;;;;;4973379;28;20034;-71
2021/09/03 08:07:06;;;;;;;15.20;7.80;;;17.60;90.00;;;;;;4974396;28;20073;-72
2021/09/03 08:09:32;;;;;;;21.70;8.32;;;17.60;89.70;;;;;;4972861;28;20118;-72
2021/09/03 08:11:58;;;;;;;21.42;8.55;;;17.60;89.80;;;;;;4974033;28;20097;-71
2021/09/03 08:14:24;;;;;;;21.58;8.48;;;17.60;89.60;;;;;;4974042;28;20438;-71
2021/09/03 08:16:50;;;;;;;14.95;7.68;;;17.60;89.30;;;;;;4972867;28;20027;-72
2021/09/03 08:19:15;;;;;;;20.73;8.35;;;17.60;89.20;;;;;;4965408;28;20115;-71
2021/09/03 08:21:41;;;;;;;16.30;6.80;;;17.70;89.00;;;;;;4971779;28;20070;-72
2021/09/03 08:24:07;;;;;;;17.00;6.63;;;17.70;88.70;;;;;;4966896;28;20026;-71
2021/09/03 08:26:32;;;;;;;11.98;5.35;;;17.70;88.40;;;;;;4972724;28;20081;-72
2021/09/03 08:28:58;;;;;;;11.57;6.20;;;17.80;88.30;;;;;;4973713;28;20035;-71
2021/09/03 08:31:24;;;;;;;13.57;5.50;;;17.70;88.00;;;;;;4972892;28;20070;-72
2021/09/03 08:33:50;;;;;;;12.27;6.00;;;17.80;87.90;;;;;;4962898;28;20041;-71
2021/09/03 08:36:16;;;;;;;12.48;6.00;;;17.80;87.70;;;;;;4972924;28;20042;-71
2021/09/03 08:38:42;;;;;;;16.40;6.43;;;17.80;87.60;;;;;;4972659;28;20391;-71
2021/09/03 08:41:08;;;;;;;12.80;5.88;;;17.90;87.90;;;;;;4969336;28;20046;-71
2021/09/03 08:43:34;;;;;;;14.80;5.80;;;17.90;87.90;;;;;;4966128;28;20034;-71
2021/09/03 08:46:00;;;;;;;22.92;6.97;;;17.90;87.90;;;;;;4972395;28;20022;-71
2021/09/03 08:48:26;;;;;;;14.38;6.20;;;17.90;87.90;;;;;;4972737;28;20114;-71
2021/09/03 08:50:54;;;;;;;19.40;8.00;;;18.00;87.90;;;;;;4971844;28;20118;-72
2021/09/03 08:53:22;;;;;;;15.48;6.78;;;18.00;88.00;;;;;;4973811;28;20027;-72
2021/09/03 08:55:50;;;;;;;20.58;7.18;;;18.00;87.70;;;;;;4960455;28;20039;-71
2021/09/03 08:58:16;;;;;;;15.80;7.20;;;18.10;87.70;;;;;;4972496;28;20026;-71
2021/09/03 09:00:43;;;;;;;17.77;7.25;;;18.10;87.60;;;;;;4973384;28;20034;-72
2021/09/03 09:03:13;;;;;;;17.02;7.53;;;18.10;87.70;;;;;;4971535;28;20031;-71
2021/09/03 09:05:53;;;;;;;21.83;8.80;;;18.10;87.60;;;;;;4972153;28;20039;-71
2021/09/03 09:08:20;;;;;;;15.15;7.00;;;18.20;87.50;;;;;;4972535;28;20069;-71
2021/09/03 09:10:59;;;;;;;18.10;8.25;;;18.20;87.30;;;;;;4972249;28;20043;-71
2021/09/03 09:13:37;;;;;;;14.73;7.47;;;18.20;87.20;;;;;;4972402;28;20038;-71
2021/09/03 09:16:12;;;;;;;14.00;6.90;;;18.20;87.00;;;;;;4970189;28;20039;-72
2021/09/03 09:18:41;;;;;;;17.50;9.10;;;18.30;86.80;;;;;;4972408;28;20121;-72
2021/09/03 09:21:18;;;;;;;17.23;7.40;;;18.30;86.90;;;;;;4971607;28;20110;-72
2021/09/03 09:23:54;;;;;;;24.02;8.10;;;18.40;86.90;;;;;;4971396;28;20046;-71
2021/09/03 09:26:27;;;;;;;18.95;7.93;;;18.50;87.00;;;;;;4971297;28;20162;-72
2021/09/03 09:28:54;;;;;;;20.83;7.28;;;18.40;86.50;;;;;;4973138;28;20030;-71
2021/09/03 09:31:37;;;;;;;17.75;7.18;;;18.50;86.40;;;;;;4972224;28;20125;-71
2021/09/03 09:34:18;;;;;;;15.67;5.97;;;18.50;86.20;;;;;;4970415;28;20039;-71
2021/09/03 09:36:45;;;;;;;13.27;5.18;;;18.50;86.00;;;;;;4976001;28;20513;-71
2021/09/03 09:39:11;;;;;;;16.08;5.30;;;18.60;85.90;;;;;;4977185;28;20057;-72
2021/09/03 09:41:37;;;;;;;15.93;4.63;;;18.70;85.70;;;;;;4975207;28;20079;-72
2021/09/03 09:44:03;;;;;;;13.45;5.43;;;18.60;85.60;;;;;;4976620;28;20058;-72
2021/09/03 09:46:31;;;;;;;14.80;5.70;;;18.70;85.70;;;;;;4977024;28;20059;-71
2021/09/03 09:49:02;;;;;;;18.63;5.53;;;18.70;85.50;;;;;;4975086;28;20035;-72
2021/09/03 09:51:31;;;;;;;14.02;5.90;;;18.70;85.50;;;;;;4976007;28;20500;-71
2021/09/03 09:54:03;;;;;;;14.55;6.18;;;18.70;85.20;;;;;;4964828;28;20031;-71
2021/09/03 09:56:32;;;;;;;16.90;5.80;;;18.80;85.10;;;;;;4974529;28;20030;-71
2021/09/03 09:58:59;;;;;;;16.25;6.50;;;18.90;84.90;;;;;;4976715;28;20138;-71
2021/09/03 10:01:25;;;;;;;19.83;6.60;;;18.90;84.70;;;;;;4974979;28;20030;-72
2021/09/03 10:03:52;;;;;;;21.15;6.68;;;18.90;84.60;;;;;;4976747;28;20541;-71
2021/09/03 10:06:20;;;;;;;25.52;7.43;;;19.00;84.60;;;;;;4975357;28;20085;-71
2021/09/03 10:08:48;;;;;;;16.40;6.70;;;19.00;84.10;;;;;;4975856;28;20117;-71
2021/09/03 10:11:15;;;;;;;25.55;6.43;;;19.00;84.00;;;;;;4975341;28;20039;-71
2021/09/03 10:13:42;;;;;;;16.10;6.80;;;19.10;83.70;;;;;;4970520;28;20082;-72
2021/09/03 10:16:08;;;;;;;20.98;6.25;;;19.10;83.40;;;;;;4972512;28;20051;-71
2021/09/03 10:18:34;;;;;;;17.88;6.53;;;19.20;83.10;;;;;;4971143;28;20422;-71
2021/09/03 10:21:01;;;;;;;18.30;7.85;;;19.20;82.90;;;;;;4971962;28;20050;-72
2021/09/03 10:23:46;;;;;;;12.23;6.03;;;19.30;82.80;;;;;;4971498;28;20027;-72
2021/09/03 10:26:13;;;;;;;16.70;6.20;;;19.30;82.70;;;;;;4971678;28;20027;-71
2021/09/03 10:28:39;;;;;;;17.98;5.97;;;19.30;82.40;;;;;;4974592;28;20038;-72
2021/09/03 10:31:06;;;;;;;14.90;5.90;;;19.30;82.90;;;;;;4973884;28;20118;-71
2021/09/03 10:33:36;;;;;;;17.70;6.45;;;19.40;82.10;;;;;;4975569;28;20395;-72
2021/09/03 10:36:03;;;;;;;20.40;6.82;;;19.40;81.80;;;;;;4969692;28;20034;-72
2021/09/03 10:38:31;;;;;;;17.98;7.53;;;19.50;81.70;;;;;;4975119;28;20038;-72
2021/09/03 10:41:02;;;;;;;14.10;6.57;;;19.50;81.30;;;;;;4975453;28;20026;-71
2021/09/03 10:43:46;;;;;;;13.75;6.45;;;19.60;81.10;;;;;;4966947;28;20387;-72
2021/09/03 10:46:12;;;;;;;;;;;19.60;80.60;;;;;;4975436;28;20375;-71
2021/09/03 10:48:38;;;;;;;18.25;6.80;;;19.60;81.00;;;;;;4976052;28;20251;-71
2021/09/03 10:51:05;;;;;;;18.50;7.53;;;19.70;81.00;;;;;;4972610;28;20077;-72
2021/09/03 10:53:37;;;;;;;18.08;6.68;;;19.70;81.00;;;;;;4975469;28;20399;-71
2021/09/03 10:56:27;;;;;;;17.88;6.80;;;19.80;80.90;;;;;;4973976;28;20548;-71
2021/09/03 10:59:06;;;;;;;16.25;7.18;;;19.80;80.40;;;;;;4965677;28;20487;-71
2021/09/03 11:01:34;;;;;;;17.73;7.50;;;19.90;80.90;;;;;;4972663;28;20034;-71
2021/09/03 11:04:15;;;;;;;15.13;7.30;;;19.90;80.70;;;;;;4974815;28;20073;-71
2021/09/03 11:07:05;;;;;;;20.80;7.13;;;20.00;80.70;;;;;;4974070;28;20027;-72
2021/09/03 11:09:31;;;;;;;15.43;6.55;;;20.00;80.80;;;;;;4975566;28;20038;-71
2021/09/03 11:12:05;;;;;;;17.23;8.40;;;20.00;80.60;;;;;;4973283;28;20514;-72
2021/09/03 11:14:31;;;;;;;20.45;7.45;;;20.10;80.10;;;;;;4973907;28;20043;-71
2021/09/03 11:16:58;;;;;;;22.70;8.35;;;20.10;80.10;;;;;;4974248;28;20035;-72
2021/09/03 11:19:33;;;;;;;15.05;7.07;;;20.20;80.00;;;;;;4974230;28;20035;-72
2021/09/03 11:22:17;;;;;;;16.58;7.32;;;20.20;79.90;;;;;;4963569;28;20042;-72
2021/09/03 11:24:50;;;;;;;19.67;7.65;;;20.20;79.70;;;;;;4964333;28;20065;-72
2021/09/03 11:27:22;;;;;;;22.75;8.48;;;20.20;79.60;;;;;;4972747;28;20043;-72
2021/09/03 11:29:53;;;;;;;18.42;7.60;;;20.30;79.40;;;;;;4962527;28;20035;-73
2021/09/03 11:32:21;;;;;;;21.05;8.63;;;20.30;79.50;;;;;;4964773;28;20551;-73
2021/09/03 11:34:57;;;;;;;19.38;8.48;;;20.40;79.80;;;;;;4971151;28;20029;-72
2021/09/03 11:37:38;;;;;;;14.80;7.53;;;20.40;79.20;;;;;;4969175;28;20065;-73
2021/09/03 11:40:26;;;;;;;21.65;8.13;;;20.50;79.40;;;;;;4971379;28;20068;-73
2021/09/03 11:42:56;;;;;;;17.70;7.30;;;20.50;79.60;;;;;;4963304;28;20039;-73
2021/09/03 11:45:28;;;;;;;23.40;7.43;;;20.60;79.30;;;;;;4974194;28;20031;-73
2021/09/03 11:48:02;;;;;;;17.00;7.60;;;20.60;79.30;;;;;;4972876;28;20053;-73
2021/09/03 11:50:29;;;;;;;20.58;8.35;;;20.60;78.70;;;;;;4973971;28;20039;-72
2021/09/03 11:52:56;;;;;;;19.23;7.78;;;20.60;79.20;;;;;;4973596;28;20015;-73
2021/09/03 11:55:23;;;;;;;16.17;7.88;;;20.60;79.10;;;;;;4969016;28;20059;-73
2021/09/03 11:58:07;;;;;;;16.50;8.57;;;20.70;79.30;;;;;;4967054;28;20422;-74
2021/09/03 12:00:36;;;;;;;17.85;9.25;;;20.70;78.80;;;;;;4968300;28;20054;-75
2021/09/03 12:03:12;;;;;;;21.73;8.10;;;20.70;78.20;;;;;;4973804;28;20035;-75
2021/09/03 12:05:39;;;;;;;22.63;7.97;;;20.80;78.50;;;;;;4963888;28;20026;-76
2021/09/03 12:08:23;;;;;;;18.15;8.88;;;20.80;78.50;;;;;;4964748;28;20364;-76
2021/09/03 12:10:49;;;;;;;17.48;7.72;;;20.80;78.10;;;;;;4972518;28;20039;-74
2021/09/03 12:13:21;;;;;;;19.85;8.18;;;20.90;78.20;;;;;;4973559;28;20035;-77
2021/09/03 12:15:55;;;;;;;21.40;9.15;;;20.90;78.10;;;;;;4952873;28;20162;-77
2021/09/03 12:18:25;;;;;;;16.60;8.48;;;21.00;77.60;;;;;;4968650;28;20042;-76
2021/09/03 12:20:56;;;;;;;23.75;8.98;;;21.00;77.70;;;;;;4967451;28;20038;-76
2021/09/03 12:23:22;;;;;;;17.73;8.23;;;21.00;77.90;;;;;;4970202;28;20079;-76
2021/09/03 12:25:48;;;;;;;17.75;8.35;;;21.10;78.40;;;;;;4969988;28;20031;-77
2021/09/03 12:28:19;;;;;;;17.95;8.95;;;21.10;77.90;;;;;;4962605;28;20030;-75
2021/09/03 12:30:50;;;;;;;19.55;8.27;;;21.10;77.70;;;;;;4965950;28;20390;-75
2021/09/03 12:33:23;;;;;;;15.13;8.05;;;21.20;78.20;;;;;;4970915;28;20031;-73
2021/09/03 12:35:50;;;;;;;19.73;7.97;;;21.20;77.90;;;;;;4971296;28;20043;-73
2021/09/03 12:38:16;;;;;;;17.48;8.00;;;21.20;78.20;;;;;;4971220;28;20062;-73
2021/09/03 12:40:43;;;;;;;19.40;8.43;;;21.30;78.60;;;;;;4972467;28;20395;-73